Time;durP1;ratioP1;P1;durP2;ratioP2;P2;SDS_P1;SDS_P2;PMS_P1;PMS_P2;Temp;Humidity;BMP_temperature;BMP_pressure;BME280_temperature;BME280_humidity;BME280_pressure;Samples;Min_cycle;Max_cycle;Signal;HPM_P1;HPM_P2
2022/10/05 00:01:58;;;;;;;5.50;3.83;;;;;;;;;;6146142;23;20435;-71
2022/10/05 00:04:44;;;;;;;10.13;5.63;;;;;;;;;;6144577;23;20013;-73
2022/10/05 00:07:30;;;;;;;6.43;3.75;;;;;;;;;;6147261;23;20010;-71
2022/10/05 00:10:16;;;;;;;8.48;4.43;;;;;;;;;;6147300;23;20009;-71
2022/10/05 00:13:04;;;;;;;11.35;3.85;;;;;;;;;;6145557;23;20087;-72
2022/10/05 00:15:56;;;;;;;7.80;3.80;;;;;;;;;;6144946;23;20006;-73
2022/10/05 00:18:44;;;;;;;10.10;4.43;;;;;;;;;;6146005;23;20010;-71
2022/10/05 00:21:32;;;;;;;9.07;4.50;;;;;;;;;;6151430;23;20309;-74
2022/10/05 00:24:18;;;;;;;8.55;4.05;;;;;;;;;;6146264;23;20017;-69
2022/10/05 00:27:24;;;;;;;9.00;4.28;;;;;;;;;;6147916;23;20006;-70
2022/10/05 00:30:12;;;;;;;6.28;4.18;;;;;;;;;;6144073;23;20024;-71
2022/10/05 00:32:58;;;;;;;7.63;4.57;;;;;;;;;;6144578;23;20006;-71
2022/10/05 00:35:43;;;;;;;7.65;4.18;;;;;;;;;;6146293;22;20110;-71
2022/10/05 00:38:29;;;;;;;6.95;4.00;;;;;;;;;;6147572;23;20010;-70
2022/10/05 00:41:29;;;;;;;7.70;4.15;;;;;;;;;;6145263;23;20020;-72
2022/10/05 00:44:14;;;;;;;7.68;4.55;;;;;;;;;;6145168;23;20013;-75
2022/10/05 00:47:07;;;;;;;7.70;4.10;;;;;;;;;;6144282;23;20010;-75
2022/10/05 00:50:05;;;;;;;8.02;4.05;;;;;;;;;;6144659;23;20010;-75
2022/10/05 00:52:53;;;;;;;6.63;3.97;;;;;;;;;;6148420;23;20055;-74
2022/10/05 00:55:39;;;;;;;5.88;3.60;;;;;;;;;;6147448;23;20006;-75
2022/10/05 00:58:33;;;;;;;8.70;4.20;;;;;;;;;;6144770;23;20389;-75
2022/10/05 01:01:26;;;;;;;9.77;4.20;;;;;;;;;;6144843;23;20020;-77
2022/10/05 01:04:30;;;;;;;8.10;4.10;;;;;;;;;;6144945;23;20021;-75
2022/10/05 01:07:34;;;;;;;6.43;3.53;;;;;;;;;;6146477;23;20010;-75
2022/10/05 01:10:20;;;;;;;6.82;3.70;;;;;;;;;;6125152;23;20014;-75
2022/10/05 01:13:24;;;;;;;9.60;3.78;;;;;;;;;;6143740;23;20067;-76
2022/10/05 01:16:13;;;;;;;7.63;3.25;;;;;;;;;;6144552;23;20329;-70
2022/10/05 01:19:17;;;;;;;8.18;3.55;;;;;;;;;;6145996;23;20001;-71
2022/10/05 01:22:06;;;;;;;8.45;4.05;;;;;;;;;;6146871;23;20005;-70
2022/10/05 01:24:51;;;;;;;6.70;4.07;;;;;;;;;;6148903;23;20005;-70
2022/10/05 01:27:56;;;;;;;6.15;3.70;;;;;;;;;;6147265;23;20002;-71
2022/10/05 01:30:47;;;;;;;9.93;4.20;;;;;;;;;;6145660;22;20009;-71
2022/10/05 01:33:36;;;;;;;7.15;3.35;;;;;;;;;;6124209;23;20013;-71
2022/10/05 01:36:27;;;;;;;9.20;4.90;;;;;;;;;;6144892;23;20068;-68
2022/10/05 01:39:21;;;;;;;10.07;3.85;;;;;;;;;;6144309;23;20440;-68
2022/10/05 01:42:09;;;;;;;6.72;4.07;;;;;;;;;;6145113;23;20087;-69
2022/10/05 01:45:06;;;;;;;7.80;3.83;;;;;;;;;;6143350;23;20063;-69
2022/10/05 01:47:57;;;;;;;9.60;5.18;;;;;;;;;;6145561;23;20019;-69
2022/10/05 01:50:58;;;;;;;7.05;4.13;;;;;;;;;;6144488;23;20391;-70
2022/10/05 01:53:43;;;;;;;8.40;4.25;;;;;;;;;;6145615;23;20080;-79
2022/10/05 01:56:37;;;;;;;7.32;4.15;;;;;;;;;;6128262;23;20016;-68
2022/10/05 01:59:41;;;;;;;9.27;4.10;;;;;;;;;;6126229;22;20001;-68
2022/10/05 02:02:28;;;;;;;7.72;4.40;;;;;;;;;;6145898;23;20014;-69
2022/10/05 02:05:25;;;;;;;8.23;4.10;;;;;;;;;;6145234;23;20366;-68
2022/10/05 02:08:16;;;;;;;6.85;3.90;;;;;;;;;;6145766;23;20432;-69
2022/10/05 02:11:06;;;;;;;10.10;4.50;;;;;;;;;;6123437;23;20014;-74
2022/10/05 02:13:56;;;;;;;8.52;4.35;;;;;;;;;;6145264;23;20452;-77
2022/10/05 02:16:42;;;;;;;7.28;4.18;;;;;;;;;;6145250;23;20365;-77
2022/10/05 02:19:31;;;;;;;6.68;3.88;;;;;;;;;;6124025;23;20389;-77
2022/10/05 02:22:18;;;;;;;6.53;4.18;;;;;;;;;;6144967;23;20010;-76
2022/10/05 02:25:08;;;;;;;6.93;3.97;;;;;;;;;;6143834;23;20013;-77
2022/10/05 02:27:57;;;;;;;5.50;3.72;;;;;;;;;;6148724;23;20017;-77
2022/10/05 02:30:46;;;;;;;7.72;4.28;;;;;;;;;;6151125;23;20116;-73
2022/10/05 02:33:32;;;;;;;7.93;4.60;;;;;;;;;;6147577;23;20325;-69
2022/10/05 02:36:27;;;;;;;8.55;4.82;;;;;;;;;;6147215;23;20336;-69
2022/10/05 02:39:15;;;;;;;8.45;4.13;;;;;;;;;;6147433;23;20070;-69
2022/10/05 02:42:07;;;;;;;6.25;3.83;;;;;;;;;;6144512;23;20435;-68
2022/10/05 02:44:55;;;;;;;7.68;3.90;;;;;;;;;;6147695;22;20093;-69
2022/10/05 02:47:41;;;;;;;9.50;4.93;;;;;;;;;;6146922;23;20013;-72
2022/10/05 02:50:35;;;;;;;8.60;3.92;;;;;;;;;;6147185;23;20059;-71
2022/10/05 02:53:23;;;;;;;9.43;4.60;;;;;;;;;;6146610;23;20328;-73
2022/10/05 02:56:30;;;;;;;6.93;4.57;;;;;;;;;;6147290;23;20009;-71
2022/10/05 02:59:26;;;;;;;6.95;4.70;;;;;;;;;;6123577;23;20451;-70
2022/10/05 03:02:22;;;;;;;10.85;5.50;;;;;;;;;;6154956;22;20039;-70
2022/10/05 03:05:17;;;;;;;6.65;4.00;;;;;;;;;;6232912;22;20028;-71
2022/10/05 03:08:14;;;;;;;6.47;3.95;;;;;;;;;;6125737;23;20010;-67
2022/10/05 03:11:18;;;;;;;8.38;4.40;;;;;;;;;;6146876;23;20093;-70
2022/10/05 03:14:12;;;;;;;6.60;4.22;;;;;;;;;;6147736;23;20056;-71
2022/10/05 03:17:16;;;;;;;6.18;4.13;;;;;;;;;;6129363;23;20010;-70
2022/10/05 03:20:34;;;;;;;8.18;4.60;;;;;;;;;;6144775;23;20085;-70
2022/10/05 03:23:39;;;;;;;9.25;5.20;;;;;;;;;;6100341;23;20010;-73
2022/10/05 03:26:25;;;;;;;9.52;4.97;;;;;;;;;;6144636;23;20016;-74
2022/10/05 03:29:23;;;;;;;8.55;4.85;;;;;;;;;;6125558;23;20005;-71
2022/10/05 03:32:12;;;;;;;6.90;4.82;;;;;;;;;;6148646;23;20385;-71
2022/10/05 03:35:02;;;;;;;7.90;5.00;;;;;;;;;;6150584;23;20001;-70
2022/10/05 03:37:53;;;;;;;11.02;6.13;;;;;;;;;;6232166;22;20013;-72
2022/10/05 03:41:07;;;;;;;7.57;4.93;;;;;;;;;;6145119;23;20005;-71
2022/10/05 03:44:12;;;;;;;8.77;4.97;;;;;;;;;;6146588;23;20009;-75
2022/10/05 03:47:06;;;;;;;7.70;4.70;;;;;;;;;;6146909;23;20058;-73
2022/10/05 03:49:52;;;;;;;7.97;4.65;;;;;;;;;;6147189;23;20350;-72
2022/10/05 03:52:40;;;;;;;8.40;5.20;;;;;;;;;;6145889;23;20433;-73
2022/10/05 03:55:30;;;;;;;8.45;5.38;;;;;;;;;;6147683;23;20005;-72
2022/10/05 03:58:22;;;;;;;9.70;5.95;;;;;;;;;;6148348;23;20432;-73
2022/10/05 04:01:10;;;;;;;9.60;5.38;;;;;;;;;;6145721;23;20040;-73
2022/10/05 04:03:58;;;;;;;9.30;5.47;;;;;;;;;;6145744;23;20006;-68
2022/10/05 04:06:47;;;;;;;10.27;5.43;;;;;;;;;;6150391;23;20018;-72
2022/10/05 04:09:36;;;;;;;7.88;5.00;;;;;;;;;;6147103;23;20384;-73
2022/10/05 04:12:26;;;;;;;10.85;4.72;;;;;;;;;;6147013;23;20013;-71
2022/10/05 04:15:18;;;;;;;8.68;5.13;;;;;;;;;;6144779;23;20413;-71
2022/10/05 04:18:06;;;;;;;9.50;5.55;;;;;;;;;;6146841;23;20421;-73
2022/10/05 04:20:54;;;;;;;8.57;5.22;;;;;;;;;;6147327;23;20013;-69
2022/10/05 04:24:00;;;;;;;9.07;5.22;;;;;;;;;;6146221;23;20013;-74
2022/10/05 04:26:57;;;;;;;7.60;4.82;;;;;;;;;;6126667;22;20014;-75
2022/10/05 04:30:01;;;;;;;7.97;4.75;;;;;;;;;;6145682;23;20024;-73
2022/10/05 04:32:51;;;;;;;6.93;4.18;;;;;;;;;;6148453;23;20039;-74
2022/10/05 04:35:42;;;;;;;12.57;5.95;;;;;;;;;;6146768;23;20455;-73
2022/10/05 04:38:28;;;;;;;9.30;5.55;;;;;;;;;;6150940;23;20492;-71
2022/10/05 04:41:28;;;;;;;8.00;5.38;;;;;;;;;;6146183;23;20319;-78
2022/10/05 04:44:35;;;;;;;8.23;5.03;;;;;;;;;;6145766;23;20016;-78
2022/10/05 04:47:37;;;;;;;7.65;5.22;;;;;;;;;;6147510;23;20040;-78
2022/10/05 04:50:29;;;;;;;8.98;6.35;;;;;;;;;;6147358;23;20009;-76
2022/10/05 04:53:32;;;;;;;10.00;5.93;;;;;;;;;;6146506;23;20014;-75
2022/10/05 04:56:23;;;;;;;8.98;5.20;;;;;;;;;;6147082;23;20429;-78
2022/10/05 04:59:22;;;;;;;9.00;6.07;;;;;;;;;;6145751;23;20017;-69
2022/10/05 05:02:34;;;;;;;11.82;5.88;;;;;;;;;;6143867;23;20096;-77
2022/10/05 05:05:33;;;;;;;11.13;5.97;;;;;;;;;;6144042;23;20093;-76
2022/10/05 05:08:19;;;;;;;11.13;5.97;;;;;;;;;;6148403;23;20020;-75
2022/10/05 05:11:16;;;;;;;13.00;6.78;;;;;;;;;;6148803;23;20005;-76
2022/10/05 05:14:21;;;;;;;11.85;6.95;;;;;;;;;;6144369;23;20071;-74
2022/10/05 05:17:18;;;;;;;13.98;6.43;;;;;;;;;;6147489;23;20006;-72
2022/10/05 05:20:22;;;;;;;10.73;6.63;;;;;;;;;;6124839;23;20020;-75
2022/10/05 05:23:07;;;;;;;10.98;5.80;;;;;;;;;;6145761;23;20016;-74
2022/10/05 05:26:01;;;;;;;11.77;6.72;;;;;;;;;;6144542;23;20511;-76
2022/10/05 05:28:46;;;;;;;9.60;6.35;;;;;;;;;;6145266;23;20359;-76
2022/10/05 05:31:38;;;;;;;10.93;6.70;;;;;;;;;;6144762;23;20009;-75
2022/10/05 05:34:42;;;;;;;9.40;6.10;;;;;;;;;;6146416;23;20079;-77
2022/10/05 05:37:46;;;;;;;9.27;5.43;;;;;;;;;;6145791;23;20014;-69
2022/10/05 05:40:39;;;;;;;9.63;6.55;;;;;;;;;;6149187;23;20371;-69
2022/10/05 05:43:26;;;;;;;8.95;5.22;;;;;;;;;;6150152;23;20048;-69
2022/10/05 05:46:35;;;;;;;9.98;6.05;;;;;;;;;;6122014;23;20009;-68
2022/10/05 05:49:23;;;;;;;11.57;6.30;;;;;;;;;;6144563;23;20005;-70
2022/10/05 05:52:19;;;;;;;11.90;5.95;;;;;;;;;;6145506;23;20021;-72
2022/10/05 05:55:15;;;;;;;8.77;6.05;;;;;;;;;;6146072;23;20006;-73
2022/10/05 05:58:08;;;;;;;12.77;6.35;;;;;;;;;;6124743;23;20032;-72
2022/10/05 06:01:05;;;;;;;9.55;6.35;;;;;;;;;;6144983;23;20024;-71
2022/10/05 06:03:53;;;;;;;11.80;6.95;;;;;;;;;;6144637;23;20013;-71
2022/10/05 06:06:41;;;;;;;12.90;6.18;;;;;;;;;;6144582;23;20014;-71
2022/10/05 06:09:29;;;;;;;14.07;6.80;;;;;;;;;;6142452;23;20053;-71
2022/10/05 06:12:17;;;;;;;12.27;6.10;;;;;;;;;;6144704;23;20285;-72
2022/10/05 06:15:23;;;;;;;12.70;7.65;;;;;;;;;;6146806;23;20012;-73
2022/10/05 06:18:10;;;;;;;12.88;7.10;;;;;;;;;;6145001;22;20055;-72
2022/10/05 06:20:58;;;;;;;11.80;6.50;;;;;;;;;;6146583;23;20028;-72
2022/10/05 06:23:58;;;;;;;10.43;6.55;;;;;;;;;;6146180;23;20092;-73
2022/10/05 06:27:02;;;;;;;14.20;7.90;;;;;;;;;;6147193;23;20014;-74
2022/10/05 06:30:05;;;;;;;11.63;7.47;;;;;;;;;;6146693;23;20041;-73
2022/10/05 06:32:59;;;;;;;11.60;7.15;;;;;;;;;;6144401;23;20021;-72
2022/10/05 06:35:54;;;;;;;12.10;7.28;;;;;;;;;;6145368;23;20010;-72
2022/10/05 06:38:52;;;;;;;14.48;7.68;;;;;;;;;;6144773;23;20025;-73
2022/10/05 06:41:52;;;;;;;19.60;9.20;;;;;;;;;;6144206;23;20014;-72
2022/10/05 06:44:56;;;;;;;13.75;7.47;;;;;;;;;;6146918;23;20031;-74
2022/10/05 06:48:01;;;;;;;12.18;6.80;;;;;;;;;;6146566;23;20368;-76
2022/10/05 06:50:51;;;;;;;11.27;6.78;;;;;;;;;;6144192;23;20009;-73
2022/10/05 06:53:43;;;;;;;11.52;7.07;;;;;;;;;;6147000;23;20020;-73
2022/10/05 06:56:40;;;;;;;17.65;7.38;;;;;;;;;;6143782;23;20017;-72
2022/10/05 06:59:38;;;;;;;13.30;7.25;;;;;;;;;;6145458;23;20056;-72
2022/10/05 07:02:26;;;;;;;12.68;7.75;;;;;;;;;;6143151;23;20021;-72
2022/10/05 07:05:38;;;;;;;11.75;6.80;;;;;;;;;;6144237;23;20076;-72
2022/10/05 07:08:30;;;;;;;13.85;7.28;;;;;;;;;;6145534;23;20013;-74
2022/10/05 07:11:23;;;;;;;12.15;7.13;;;;;;;;;;6144738;23;20005;-73
2022/10/05 07:14:26;;;;;;;10.25;6.47;;;;;;;;;;6146412;23;20055;-71
2022/10/05 07:17:26;;;;;;;9.20;5.63;;;;;;;;;;6149803;23;20311;-71
2022/10/05 07:20:24;;;;;;;16.90;6.50;;;;;;;;;;6124903;23;20025;-71
2022/10/05 07:23:10;;;;;;;10.55;6.15;;;;;;;;;;6144611;23;20022;-70
2022/10/05 07:26:11;;;;;;;11.65;6.43;;;;;;;;;;6146170;23;20014;-73
2022/10/05 07:29:11;;;;;;;12.30;6.03;;;;;;;;;;6145497;23;20020;-68
2022/10/05 07:31:57;;;;;;;14.32;8.15;;;;;;;;;;6141773;23;20096;-68
2022/10/05 07:34:57;;;;;;;16.45;7.30;;;;;;;;;;6141898;23;20013;-70
2022/10/05 07:37:56;;;;;;;11.27;7.20;;;;;;;;;;6142882;23;20128;-68
2022/10/05 07:40:54;;;;;;;12.77;7.80;;;;;;;;;;6145529;23;20097;-69
2022/10/05 07:43:40;;;;;;;11.25;7.28;;;;;;;;;;6145549;23;20333;-72
2022/10/05 07:46:31;;;;;;;17.23;8.85;;;;;;;;;;6145346;23;20411;-72
2022/10/05 07:49:21;;;;;;;17.02;7.32;;;;;;;;;;6151628;23;20204;-72
2022/10/05 07:52:10;;;;;;;12.38;7.82;;;;;;;;;;6145620;23;20058;-72
2022/10/05 07:55:01;;;;;;;18.33;7.72;;;;;;;;;;6146915;23;20036;-72
2022/10/05 07:57:59;;;;;;;12.68;7.28;;;;;;;;;;6146487;23;20362;-72
2022/10/05 08:01:08;;;;;;;15.68;7.28;;;;;;;;;;6146587;23;20013;-74
2022/10/05 08:04:03;;;;;;;9.87;6.93;;;;;;;;;;6268241;22;20016;-72
2022/10/05 08:06:50;;;;;;;11.00;6.60;;;;;;;;;;6265886;22;20058;-73
2022/10/05 08:09:36;;;;;;;17.88;7.22;;;;;;;;;;6266111;22;20439;-73
2022/10/05 08:12:33;;;;;;;14.13;6.38;;;;;;;;;;6266829;22;20007;-73
2022/10/05 08:15:23;;;;;;;11.48;6.63;;;;;;;;;;6267108;22;20069;-72
2022/10/05 08:18:18;;;;;;;10.93;6.57;;;;;;;;;;6267369;22;20427;-73
2022/10/05 08:21:10;;;;;;;11.30;7.40;;;;;;;;;;6272427;22;20302;-73
2022/10/05 08:24:04;;;;;;;15.32;6.90;;;;;;;;;;6249913;22;20011;-74
2022/10/05 08:26:54;;;;;;;11.18;6.85;;;;;;;;;;6268391;22;20099;-74
2022/10/05 08:30:00;;;;;;;10.38;5.38;;;;;;;;;;6267695;22;20087;-73
2022/10/05 08:32:53;;;;;;;11.45;5.93;;;;;;;;;;6267377;22;20390;-73
2022/10/05 08:35:42;;;;;;;14.45;6.97;;;;;;;;;;6154035;22;20044;-73
2022/10/05 08:38:30;;;;;;;12.97;6.20;;;;;;;;;;6124474;22;20009;-70
2022/10/05 08:41:34;;;;;;;9.98;6.68;;;;;;;;;;6145866;23;20009;-69
2022/10/05 08:44:41;;;;;;;14.80;6.85;;;;;;;;;;6145489;23;20070;-70
2022/10/05 08:47:27;;;;;;;13.15;6.70;;;;;;;;;;6145848;23;20048;-69
2022/10/05 08:50:21;;;;;;;12.55;5.88;;;;;;;;;;6144701;23;20084;-69
2022/10/05 08:53:18;;;;;;;10.07;6.25;;;;;;;;;;6149600;23;20063;-69
2022/10/05 08:56:13;;;;;;;9.77;5.85;;;;;;;;;;6125193;23;20425;-74
2022/10/05 08:59:17;;;;;;;11.85;5.95;;;;;;;;;;6144799;23;20009;-70
2022/10/05 09:02:22;;;;;;;11.30;5.55;;;;;;;;;;6141707;22;20040;-70
2022/10/05 09:05:20;;;;;;;10.88;5.15;;;;;;;;;;6144115;23;20100;-72
2022/10/05 09:08:24;;;;;;;10.55;6.00;;;;;;;;;;6144204;23;20208;-71
2022/10/05 09:11:09;;;;;;;14.52;6.32;;;;;;;;;;6144825;23;20021;-68
2022/10/05 09:14:13;;;;;;;9.93;5.72;;;;;;;;;;6144994;23;20009;-70
2022/10/05 09:17:18;;;;;;;10.05;6.03;;;;;;;;;;6142687;23;20016;-69
2022/10/05 09:20:09;;;;;;;10.10;5.00;;;;;;;;;;6145230;23;20013;-69
2022/10/05 09:22:58;;;;;;;10.07;6.13;;;;;;;;;;6145710;23;20035;-70
2022/10/05 09:25:54;;;;;;;10.70;5.07;;;;;;;;;;6150750;23;20021;-70
2022/10/05 09:28:58;;;;;;;12.25;5.20;;;;;;;;;;6142289;23;20013;-70
2022/10/05 09:31:53;;;;;;;10.18;5.38;;;;;;;;;;6141643;23;20135;-71
2022/10/05 09:34:42;;;;;;;8.45;4.70;;;;;;;;;;6142679;23;20010;-74
2022/10/05 09:37:32;;;;;;;7.17;4.90;;;;;;;;;;6145423;23;20014;-74
2022/10/05 09:40:36;;;;;;;7.95;4.65;;;;;;;;;;6145825;23;20222;-74
2022/10/05 09:43:43;;;;;;;7.05;4.45;;;;;;;;;;6146534;23;20010;-74
2022/10/05 09:46:31;;;;;;;7.35;4.65;;;;;;;;;;6144385;23;20432;-74
2022/10/05 09:49:43;;;;;;;11.25;5.28;;;;;;;;;;6143473;23;20017;-74
2022/10/05 09:52:31;;;;;;;10.38;5.00;;;;;;;;;;6119055;23;20040;-76
2022/10/05 09:55:32;;;;;;;8.80;5.07;;;;;;;;;;6143504;23;20428;-69
2022/10/05 09:58:36;;;;;;;9.70;4.82;;;;;;;;;;6152710;23;20013;-68
2022/10/05 10:01:22;;;;;;;10.20;3.80;;;;;;;;;;6144312;23;20106;-69
2022/10/05 10:04:28;;;;;;;12.38;5.00;;;;;;;;;;6143754;23;20545;-69
2022/10/05 10:07:26;;;;;;;7.70;4.35;;;;;;;;;;6146316;23;20308;-68
2022/10/05 10:10:14;;;;;;;7.28;4.25;;;;;;;;;;6144496;23;20088;-70
2022/10/05 10:13:18;;;;;;;9.02;4.63;;;;;;;;;;6143730;23;20010;-75
2022/10/05 10:16:27;;;;;;;6.85;4.05;;;;;;;;;;6143241;23;20014;-76
2022/10/05 10:19:31;;;;;;;8.05;4.72;;;;;;;;;;6144829;23;20439;-71
2022/10/05 10:22:47;;;;;;;10.70;4.90;;;;;;;;;;6146452;23;20018;-71
2022/10/05 10:25:51;;;;;;;7.68;3.85;;;;;;;;;;6145686;23;20080;-70
2022/10/05 10:28:54;;;;;;;10.57;4.47;;;;;;;;;;6148135;22;20012;-71
2022/10/05 10:31:58;;;;;;;9.77;3.70;;;;;;;;;;6146347;23;20001;-63
2022/10/05 10:34:44;;;;;;;9.77;3.45;;;;;;;;;;6145505;23;20033;-62
2022/10/05 10:37:48;;;;;;;7.93;3.35;;;;;;;;;;6145753;23;20009;-63
2022/10/05 10:40:52;;;;;;;6.68;2.60;;;;;;;;;;6145476;23;20027;-60
2022/10/05 10:43:53;;;;;;;6.68;2.50;;;;;;;;;;6144926;23;20009;-62
2022/10/05 10:47:03;;;;;;;9.43;3.53;;;;;;;;;;6145940;23;20017;-59
2022/10/05 10:50:08;;;;;;;6.07;2.20;;;;;;;;;;6147170;23;20059;-65
2022/10/05 10:53:12;;;;;;;2.28;1.70;;;;;;;;;;6146757;23;20433;-65
2022/10/05 10:55:57;;;;;;;6.43;2.33;;;;;;;;;;6148752;23;20009;-63
2022/10/05 10:58:49;;;;;;;8.98;3.42;;;;;;;;;;6145792;23;20022;-62
2022/10/05 11:01:39;;;;;;;7.97;3.20;;;;;;;;;;6151784;23;20009;-63
2022/10/05 11:04:24;;;;;;;8.05;2.83;;;;;;;;;;6146725;23;20017;-66
2022/10/05 11:07:20;;;;;;;4.38;1.70;;;;;;;;;;6145716;23;20383;-68
2022/10/05 11:10:24;;;;;;;5.60;2.45;;;;;;;;;;6145438;23;20006;-67
2022/10/05 11:13:29;;;;;;;4.78;2.53;;;;;;;;;;6145346;23;20024;-67
2022/10/05 11:16:41;;;;;;;3.97;2.15;;;;;;;;;;6146953;23;20032;-69
2022/10/05 11:19:44;;;;;;;5.70;2.13;;;;;;;;;;6145424;23;20006;-69
2022/10/05 11:22:47;;;;;;;5.82;2.00;;;;;;;;;;6147117;23;20502;-69
2022/10/05 11:25:51;;;;;;;5.43;2.00;;;;;;;;;;6146455;23;20104;-61
2022/10/05 11:28:49;;;;;;;4.47;1.75;;;;;;;;;;6147759;23;20013;-71
2022/10/05 11:31:44;;;;;;;3.90;2.20;;;;;;;;;;6124980;23;20013;-70
2022/10/05 11:34:48;;;;;;;5.80;2.72;;;;;;;;;;6152681;22;20040;-68
2022/10/05 11:37:39;;;;;;;6.03;2.33;;;;;;;;;;6145415;23;20489;-68
2022/10/05 11:40:37;;;;;;;5.82;1.75;;;;;;;;;;6146094;23;20059;-68
2022/10/05 11:43:22;;;;;;;3.78;1.77;;;;;;;;;;6147742;23;20064;-61
2022/10/05 11:46:18;;;;;;;3.63;1.77;;;;;;;;;;6126507;23;20095;-63
2022/10/05 11:49:10;;;;;;;5.43;1.85;;;;;;;;;;6147090;23;20021;-62
2022/10/05 11:52:25;;;;;;;2.80;1.55;;;;;;;;;;6146079;23;20024;-63
2022/10/05 11:55:23;;;;;;;3.80;1.70;;;;;;;;;;6138346;23;20024;-63
2022/10/05 11:58:08;;;;;;;9.55;2.33;;;;;;;;;;6146410;23;20089;-62
2022/10/05 12:01:12;;;;;;;2.67;1.45;;;;;;;;;;6145493;23;20010;-67
2022/10/05 12:04:04;;;;;;;3.30;1.90;;;;;;;;;;6148339;23;20418;-68
2022/10/05 12:06:50;;;;;;;4.22;1.98;;;;;;;;;;6151722;23;20088;-69
2022/10/05 12:10:12;;;;;;;5.57;1.67;;;;;;;;;;6144113;23;20014;-68
2022/10/05 12:13:13;;;;;;;3.58;2.00;;;;;;;;;;6144937;22;20014;-69
2022/10/05 12:16:16;;;;;;;5.57;2.10;;;;;;;;;;6145741;23;20041;-69
2022/10/05 12:19:07;;;;;;;5.43;2.20;;;;;;;;;;6146768;23;20015;-62
2022/10/05 12:21:52;;;;;;;4.68;1.70;;;;;;;;;;6144480;23;20010;-60
2022/10/05 12:24:38;;;;;;;3.35;1.80;;;;;;;;;;6145511;23;20014;-61
2022/10/05 12:27:25;;;;;;;3.97;1.85;;;;;;;;;;6144925;23;20020;-61
2022/10/05 12:30:17;;;;;;;3.72;1.67;;;;;;;;;;6145562;22;20002;-60
2022/10/05 12:33:15;;;;;;;2.97;1.65;;;;;;;;;;6147570;22;20044;-61
2022/10/05 12:36:12;;;;;;;3.30;1.83;;;;;;;;;;6146298;23;20329;-60
2022/10/05 12:39:27;;;;;;;4.90;2.00;;;;;;;;;;6150507;23;20083;-68
2022/10/05 12:42:13;;;;;;;4.18;1.70;;;;;;;;;;6062224;23;20440;-61
2022/10/05 12:45:12;;;;;;;3.25;1.63;;;;;;;;;;6144421;23;20337;-61
2022/10/05 12:48:17;;;;;;;3.22;1.42;;;;;;;;;;6146872;23;20353;-62
2022/10/05 12:51:26;;;;;;;4.97;2.00;;;;;;;;;;6143792;23;20037;-62
2022/10/05 12:54:14;;;;;;;1.33;1.23;;;;;;;;;;6142324;23;20074;-62
2022/10/05 12:57:22;;;;;;;2.40;1.80;;;;;;;;;;6144358;23;20237;-67
2022/10/05 13:00:13;;;;;;;2.47;1.63;;;;;;;;;;6144519;23;20032;-61
2022/10/05 13:03:12;;;;;;;4.35;1.70;;;;;;;;;;6146196;23;20067;-60
2022/10/05 13:06:08;;;;;;;3.15;1.80;;;;;;;;;;6142572;23;20425;-62
2022/10/05 13:09:07;;;;;;;3.40;1.52;;;;;;;;;;6149494;23;20005;-62
2022/10/05 13:11:56;;;;;;;2.55;1.40;;;;;;;;;;6146104;23;20039;-63
2022/10/05 13:14:50;;;;;;;3.53;1.55;;;;;;;;;;6144720;23;20031;-68
2022/10/05 13:17:36;;;;;;;3.30;1.60;;;;;;;;;;6144381;23;20367;-64
2022/10/05 13:20:22;;;;;;;2.70;1.23;;;;;;;;;;6144260;23;20082;-65
2022/10/05 13:23:10;;;;;;;3.22;1.35;;;;;;;;;;6145501;23;20337;-65
2022/10/05 13:26:16;;;;;;;5.07;1.20;;;;;;;;;;6143177;23;20075;-64
2022/10/05 13:29:02;;;;;;;2.03;1.27;;;;;;;;;;6145867;22;20587;-64
2022/10/05 13:31:53;;;;;;;1.80;1.20;;;;;;;;;;6145199;22;20095;-63
2022/10/05 13:34:44;;;;;;;1.25;1.15;;;;;;;;;;6145945;23;20367;-72
2022/10/05 13:37:33;;;;;;;2.83;1.35;;;;;;;;;;6144646;23;20443;-60
2022/10/05 13:40:31;;;;;;;8.43;1.00;;;;;;;;;;6145336;23;20193;-59
2022/10/05 13:43:26;;;;;;;1.98;1.40;;;;;;;;;;6148469;23;20285;-58
2022/10/05 13:46:36;;;;;;;2.40;1.10;;;;;;;;;;6143008;23;20041;-59
2022/10/05 13:49:43;;;;;;;1.42;1.13;;;;;;;;;;6145365;23;20393;-59
2022/10/05 13:52:34;;;;;;;4.55;1.02;;;;;;;;;;6145128;23;20095;-56
2022/10/05 13:55:35;;;;;;;1.77;1.13;;;;;;;;;;6145012;23;20044;-59
2022/10/05 13:58:21;;;;;;;4.30;1.10;;;;;;;;;;6145043;23;20385;-59
2022/10/05 14:01:11;;;;;;;2.08;1.27;;;;;;;;;;6144962;23;20009;-58
2022/10/05 14:04:04;;;;;;;2.25;1.30;;;;;;;;;;6145427;23;20048;-62
2022/10/05 14:06:53;;;;;;;2.78;1.23;;;;;;;;;;6143899;23;20026;-59
2022/10/05 14:09:46;;;;;;;7.25;1.15;;;;;;;;;;6146905;23;20010;-65
2022/10/05 14:12:36;;;;;;;1.33;0.75;;;;;;;;;;6147728;23;20278;-60
2022/10/05 14:15:31;;;;;;;1.23;1.08;;;;;;;;;;6149843;23;20010;-59
2022/10/05 14:18:24;;;;;;;1.85;0.80;;;;;;;;;;6144990;23;20013;-60
2022/10/05 14:21:10;;;;;;;1.85;0.98;;;;;;;;;;6144952;23;20040;-60
2022/10/05 14:24:16;;;;;;;2.45;1.10;;;;;;;;;;6143517;23;20013;-57
2022/10/05 14:27:19;;;;;;;3.85;1.35;;;;;;;;;;6143709;23;20052;-57
2022/10/05 14:30:17;;;;;;;3.10;1.20;;;;;;;;;;6144951;23;20041;-65
2022/10/05 14:33:02;;;;;;;1.67;0.90;;;;;;;;;;6145917;23;20340;-64
2022/10/05 14:35:52;;;;;;;1.95;1.00;;;;;;;;;;6144268;23;20413;-64
2022/10/05 14:39:02;;;;;;;2.50;1.48;;;;;;;;;;6146427;23;20002;-63
2022/10/05 14:41:48;;;;;;;1.88;1.08;;;;;;;;;;6146868;23;20024;-67
2022/10/05 14:44:33;;;;;;;3.17;1.25;;;;;;;;;;6148214;23;20019;-65
2022/10/05 14:47:21;;;;;;;2.78;1.10;;;;;;;;;;6127200;23;20044;-59
2022/10/05 14:50:15;;;;;;;2.50;1.30;;;;;;;;;;6146392;23;20044;-62
2022/10/05 14:53:10;;;;;;;1.17;0.93;;;;;;;;;;6145982;23;20012;-61
2022/10/05 14:56:15;;;;;;;2.67;1.00;;;;;;;;;;6144771;23;20010;-61
2022/10/05 14:59:07;;;;;;;2.65;1.58;;;;;;;;;;6145146;23;20062;-62
2022/10/05 15:01:56;;;;;;;2.38;0.98;;;;;;;;;;6143708;23;20681;-61
2022/10/05 15:04:51;;;;;;;4.97;1.73;;;;;;;;;;6145953;23;20067;-61
2022/10/05 15:07:39;;;;;;;4.43;1.50;;;;;;;;;;6145928;22;20028;-64
2022/10/05 15:10:35;;;;;;;6.30;1.60;;;;;;;;;;6146145;23;20071;-64
2022/10/05 15:13:26;;;;;;;7.60;1.50;;;;;;;;;;6143849;23;20096;-65
2022/10/05 15:16:30;;;;;;;9.32;3.30;;;;;;;;;;6145409;23;20092;-63
2022/10/05 15:19:19;;;;;;;3.25;1.10;;;;;;;;;;6149115;23;20096;-64
2022/10/05 15:22:12;;;;;;;1.30;1.10;;;;;;;;;;6145533;23;20006;-69
2022/10/05 15:25:04;;;;;;;4.60;1.48;;;;;;;;;;6146153;23;20278;-68
2022/10/05 15:27:52;;;;;;;3.28;1.38;;;;;;;;;;6143966;23;20009;-68
2022/10/05 15:31:01;;;;;;;4.00;2.00;;;;;;;;;;6121266;23;20013;-69
2022/10/05 15:34:06;;;;;;;5.68;1.50;;;;;;;;;;6143484;23;20057;-68
2022/10/05 15:37:06;;;;;;;6.43;1.67;;;;;;;;;;6145429;23;20092;-66
2022/10/05 15:39:57;;;;;;;8.05;2.55;;;;;;;;;;6145933;22;20085;-66
2022/10/05 15:42:44;;;;;;;4.75;1.40;;;;;;;;;;6145771;23;20321;-69
2022/10/05 15:45:31;;;;;;;5.40;2.30;;;;;;;;;;6147237;22;20436;-66
2022/10/05 15:48:38;;;;;;;6.25;1.65;;;;;;;;;;6149353;23;20013;-66
2022/10/05 15:51:39;;;;;;;4.90;1.63;;;;;;;;;;6150333;23;20009;-65
2022/10/05 15:54:43;;;;;;;4.93;1.52;;;;;;;;;;6147462;23;20371;-66
2022/10/05 15:57:42;;;;;;;6.00;1.80;;;;;;;;;;6145182;23;20088;-65
2022/10/05 16:00:31;;;;;;;7.35;1.70;;;;;;;;;;6147872;23;20010;-65
2022/10/05 16:03:24;;;;;;;8.73;2.08;;;;;;;;;;6146546;23;20013;-61
2022/10/05 16:09:26;;;;;;;3.00;1.75;;;;;;;;;;6146175;23;20010;-61
2022/10/05 16:12:12;;;;;;;8.70;2.03;;;;;;;;;;6145111;23;20009;-60
2022/10/05 16:14:58;;;;;;;5.63;1.60;;;;;;;;;;6145609;23;20433;-61
2022/10/05 16:17:54;;;;;;;7.80;1.85;;;;;;;;;;6147724;22;20382;-67
2022/10/05 16:20:39;;;;;;;5.18;1.83;;;;;;;;;;6148638;23;20012;-70
2022/10/05 16:23:43;;;;;;;6.53;1.73;;;;;;;;;;6151044;23;20047;-69
2022/10/05 16:26:42;;;;;;;4.15;1.58;;;;;;;;;;6120458;23;20433;-69
2022/10/05 16:29:33;;;;;;;5.68;2.10;;;;;;;;;;6142822;23;20325;-67
2022/10/05 16:32:23;;;;;;;8.32;1.63;;;;;;;;;;6141718;23;20014;-72
2022/10/05 16:35:20;;;;;;;4.53;1.60;;;;;;;;;;6121585;22;20216;-73
2022/10/05 16:38:05;;;;;;;3.58;1.92;;;;;;;;;;6146136;23;20016;-79
2022/10/05 16:41:03;;;;;;;4.85;1.90;;;;;;;;;;6143993;23;20094;-70
2022/10/05 16:44:01;;;;;;;9.70;2.60;;;;;;;;;;6147302;23;20009;-71
2022/10/05 16:46:47;;;;;;;10.65;3.50;;;;;;;;;;6146103;23;20018;-72
2022/10/05 16:49:41;;;;;;;15.65;3.60;;;;;;;;;;6145685;23;20020;-72
2022/10/05 16:52:27;;;;;;;10.98;2.95;;;;;;;;;;6125628;23;20002;-73
2022/10/05 16:55:20;;;;;;;11.30;3.70;;;;;;;;;;6149492;23;20507;-73
2022/10/05 16:58:13;;;;;;;8.52;3.00;;;;;;;;;;6145750;23;20006;-74
2022/10/05 17:01:02;;;;;;;12.73;2.85;;;;;;;;;;6146241;23;20017;-72
2022/10/05 17:03:47;;;;;;;8.13;2.10;;;;;;;;;;6145221;23;20097;-73
2022/10/05 17:06:59;;;;;;;5.10;2.22;;;;;;;;;;6145076;23;20372;-74
2022/10/05 17:09:54;;;;;;;6.60;2.10;;;;;;;;;;6145870;22;20013;-73
2022/10/05 17:12:45;;;;;;;5.95;2.30;;;;;;;;;;6146036;23;20009;-68
2022/10/05 17:15:32;;;;;;;4.47;2.10;;;;;;;;;;6146754;23;20092;-69
2022/10/05 17:18:49;;;;;;;5.97;2.40;;;;;;;;;;6145403;23;20009;-70
2022/10/05 17:21:44;;;;;;;5.43;1.85;;;;;;;;;;6147067;23;20092;-68
2022/10/05 17:24:34;;;;;;;7.63;2.20;;;;;;;;;;6130136;23;20009;-70
2022/10/05 17:27:22;;;;;;;5.43;2.25;;;;;;;;;;6149487;23;20436;-69